Time;durP1;ratioP1;P1;durP2;ratioP2;P2;SDS_P1;SDS_P2;PMS_P1;PMS_P2;Temp;Humidity;BMP_temperature;BMP_pressure;BME280_temperature;BME280_humidity;BME280_pressure;Samples;Min_cycle;Max_cycle;Signal;HPM_P1;HPM_P2
2022/01/23 00:01:34;;;;;;;1.20;1.20;;;4.30;98.00;;;;;;5092563;28;20481;-69
2022/01/23 00:04:02;;;;;;;1.60;1.60;;;4.20;98.00;;;;;;5091403;28;20455;-68
2022/01/23 00:06:30;;;;;;;1.30;1.13;;;4.30;98.00;;;;;;5092462;28;20440;-69
2022/01/23 00:08:58;;;;;;;1.87;1.77;;;4.30;98.00;;;;;;5092399;28;20460;-69
2022/01/23 00:11:27;;;;;;;1.10;1.00;;;4.20;98.00;;;;;;5092481;28;20761;-69
2022/01/23 00:19:24;;;;;;;2.47;1.63;;;4.10;98.00;;;;;;5092306;28;20578;-69
2022/01/23 00:21:57;;;;;;;1.20;1.20;;;4.10;98.00;;;;;;5092048;28;20572;-69
2022/01/23 00:32:38;;;;;;;1.43;1.30;;;4.00;98.00;;;;;;5092359;28;20475;-70
2022/01/23 00:35:05;;;;;;;1.43;1.30;;;3.90;98.00;;;;;;5091978;28;20484;-68
2022/01/23 00:37:34;;;;;;;1.40;1.20;;;3.90;98.00;;;;;;5092297;28;20492;-69
2022/01/23 00:40:01;;;;;;;2.27;1.53;;;3.90;98.00;;;;;;5091895;28;21012;-68
2022/01/23 00:42:29;;;;;;;1.10;1.10;;;4.00;98.00;;;;;;5092318;28;20463;-69
2022/01/23 00:45:06;;;;;;;1.60;1.60;;;4.00;98.00;;;;;;5090901;28;21014;-70
2022/01/23 00:47:35;;;;;;;1.47;1.37;;;4.10;98.00;;;;;;5092235;28;20965;-68
2022/01/23 00:50:02;;;;;;;1.20;1.10;;;4.20;98.00;;;;;;5092000;28;20969;-70
2022/01/23 00:52:29;;;;;;;1.30;1.17;;;4.10;98.00;;;;;;5092204;28;20488;-69
2022/01/23 00:55:00;;;;;;;3.83;2.27;;;4.10;98.00;;;;;;5092002;28;20491;-69
2022/01/23 00:57:27;;;;;;;1.10;1.00;;;4.10;98.00;;;;;;5091651;28;20464;-68
2022/01/23 00:59:55;;;;;;;1.30;1.30;;;4.10;98.00;;;;;;5091942;28;20566;-68
2022/01/23 01:02:22;;;;;;;1.73;1.53;;;4.20;98.00;;;;;;5090295;28;20445;-69
2022/01/23 01:04:49;;;;;;;1.23;1.10;;;4.20;98.00;;;;;;5091723;28;20934;-69
2022/01/23 01:07:16;;;;;;;1.10;1.00;;;4.10;98.00;;;;;;5091806;28;20546;-69
2022/01/23 01:09:48;;;;;;;1.10;1.00;;;4.00;98.00;;;;;;5091527;28;20955;-69
2022/01/23 01:12:20;;;;;;;1.10;1.10;;;3.90;98.00;;;;;;5091583;28;20952;-69
2022/01/23 01:15:12;;;;;;;1.20;1.20;;;3.90;98.00;;;;;;5091564;28;20451;-68
2022/01/23 01:30:10;;;;;;;1.10;1.03;;;4.00;98.00;;;;;;5090601;28;20530;-70
2022/01/23 01:31:34;;;;;;;1.40;1.23;;;4.10;98.00;;;;;;5091380;28;20460;-68
2022/01/23 01:34:03;;;;;;;1.10;1.00;;;4.10;98.00;;;;;;5091197;28;20947;-69
2022/01/23 01:36:44;;;;;;;1.30;1.30;;;4.10;98.00;;;;;;5091400;28;20543;-68
2022/01/23 01:39:12;;;;;;;1.20;1.10;;;4.10;98.00;;;;;;5093489;28;20452;-68
2022/01/23 01:41:40;;;;;;;1.40;1.30;;;4.20;98.00;;;;;;5095412;28;20485;-69
2022/01/23 01:44:09;;;;;;;1.53;1.43;;;4.20;98.00;;;;;;5095033;28;20544;-69
2022/01/23 01:46:36;;;;;;;1.83;1.73;;;4.20;98.00;;;;;;5095349;28;20495;-70
2022/01/23 01:49:03;;;;;;;3.10;1.77;;;4.20;98.00;;;;;;5095106;28;20456;-69
2022/01/23 01:51:32;;;;;;;1.10;1.00;;;4.10;98.00;;;;;;5095272;28;20449;-70
2022/01/23 01:54:06;;;;;;;1.50;1.50;;;4.20;98.00;;;;;;5095014;28;20453;-68
2022/01/23 01:56:39;;;;;;;1.30;1.17;;;4.20;98.00;;;;;;5094993;28;20459;-69
2022/01/23 01:59:20;;;;;;;1.70;1.70;;;4.20;98.00;;;;;;5095160;28;20456;-69
2022/01/23 02:10:08;;;;;;;1.60;1.43;;;4.10;98.00;;;;;;5083845;28;20461;-70
2022/01/23 02:16:01;;;;;;;1.10;1.00;;;4.20;98.00;;;;;;5095010;28;20528;-69
2022/01/23 02:24:09;;;;;;;1.93;1.67;;;4.10;98.00;;;;;;5094737;28;20447;-69
2022/01/23 02:51:43;;;;;;;4.23;2.00;;;3.90;98.00;;;;;;5093360;28;20855;-68
2022/01/23 02:54:38;;;;;;;9.97;2.97;;;4.00;98.00;;;;;;5093035;28;21110;-68
2022/01/23 02:57:06;;;;;;;1.20;1.07;;;4.00;98.00;;;;;;5093625;28;20467;-69
2022/01/23 02:59:36;;;;;;;2.60;1.50;;;3.90;98.00;;;;;;5093993;28;20455;-69
2022/01/23 03:02:14;;;;;;;1.20;1.20;;;3.90;98.00;;;;;;5093782;28;20492;-69
2022/01/23 03:04:50;;;;;;;1.10;1.00;;;4.10;98.00;;;;;;5093744;28;20972;-69
2022/01/23 03:07:38;;;;;;;1.10;1.10;;;4.10;98.00;;;;;;5093789;28;20461;-68
2022/01/23 03:10:12;;;;;;;1.30;1.20;;;4.00;98.00;;;;;;5093609;28;20448;-69
2022/01/23 03:15:29;;;;;;;1.83;1.23;;;4.00;98.00;;;;;;5093576;28;20790;-69
2022/01/23 03:29:18;;;;;;;1.20;1.17;;;4.40;98.00;;;;;;5093291;28;20489;-69
2022/01/23 03:31:59;;;;;;;1.30;1.30;;;4.50;98.00;;;;;;5093206;28;20554;-69
2022/01/23 03:34:27;;;;;;;1.80;1.63;;;4.40;98.00;;;;;;5093245;28;20464;-69
2022/01/23 03:36:56;;;;;;;1.30;1.17;;;4.40;98.00;;;;;;5093153;28;20446;-69
2022/01/23 03:39:24;;;;;;;1.17;1.10;;;4.50;98.00;;;;;;5093078;28;20479;-68
2022/01/23 03:41:53;;;;;;;1.10;1.10;;;4.50;98.00;;;;;;5093291;28;20516;-69
2022/01/23 03:44:22;;;;;;;1.10;0.93;;;4.60;98.00;;;;;;5093145;28;20943;-68
2022/01/23 03:47:01;;;;;;;1.30;1.20;;;4.50;98.00;;;;;;5092835;28;20544;-70
2022/01/23 03:49:31;;;;;;;1.10;1.00;;;4.40;98.00;;;;;;5093160;28;20448;-68
2022/01/23 03:52:04;;;;;;;1.40;1.30;;;4.40;98.00;;;;;;5092790;28;20539;-69
2022/01/23 03:54:32;;;;;;;1.77;1.60;;;4.30;98.00;;;;;;5092855;28;20965;-68
2022/01/23 03:57:03;;;;;;;1.50;1.40;;;4.30;98.00;;;;;;5092860;28;20469;-68
2022/01/23 03:59:33;;;;;;;1.10;1.00;;;4.20;98.00;;;;;;5092504;28;20547;-68
2022/01/23 04:02:00;;;;;;;1.87;1.77;;;4.30;98.00;;;;;;5091718;28;20649;-68
2022/01/23 04:04:39;;;;;;;1.73;1.63;;;4.20;98.00;;;;;;5091552;28;20503;-68
2022/01/23 04:07:08;;;;;;;1.30;1.30;;;4.20;98.00;;;;;;5092554;28;20445;-68
2022/01/23 04:09:36;;;;;;;1.67;1.57;;;4.20;98.00;;;;;;5092422;28;20452;-69
2022/01/23 04:12:11;;;;;;;1.10;1.00;;;4.10;98.00;;;;;;5092489;28;20535;-68
2022/01/23 04:14:45;;;;;;;2.50;2.03;;;4.10;98.00;;;;;;5092574;28;20826;-69
2022/01/23 04:17:59;;;;;;;1.30;1.10;;;4.00;98.00;;;;;;5091946;28;20487;-69
2022/01/23 04:34:18;;;;;;;1.20;1.20;;;3.90;98.00;;;;;;5092083;28;20491;-68
2022/01/23 04:45:19;;;;;;;1.10;1.10;;;4.00;98.00;;;;;;5091694;28;20442;-68
2022/01/23 05:02:10;;;;;;;1.30;1.20;;;4.00;98.00;;;;;;5130144;28;20487;-68
2022/01/23 05:04:41;;;;;;;1.37;1.20;;;3.90;98.00;;;;;;5130054;28;20486;-70
2022/01/23 05:07:12;;;;;;;1.30;1.20;;;3.90;98.00;;;;;;5129818;28;20959;-68
2022/01/23 05:09:39;;;;;;;1.30;1.13;;;4.00;98.00;;;;;;5129709;28;20568;-68
2022/01/23 05:12:09;;;;;;;1.37;1.33;;;4.00;98.00;;;;;;5129914;28;20486;-68
2022/01/23 05:14:43;;;;;;;1.27;1.23;;;4.00;98.00;;;;;;5129683;28;20458;-68
2022/01/23 05:17:13;;;;;;;1.10;1.00;;;4.10;98.00;;;;;;5129355;28;20458;-68
2022/01/23 05:19:41;;;;;;;1.87;1.47;;;4.10;98.00;;;;;;5129273;28;20464;-69
2022/01/23 05:22:30;;;;;;;1.37;1.33;;;4.10;98.00;;;;;;5129704;28;20511;-68
2022/01/23 05:25:02;;;;;;;1.67;1.33;;;4.20;98.00;;;;;;5129247;28;20453;-70
2022/01/23 05:27:32;;;;;;;1.10;1.03;;;4.30;98.00;;;;;;5129331;28;20451;-68
2022/01/23 05:29:59;;;;;;;1.20;1.20;;;4.30;98.00;;;;;;5129171;28;20605;-68
2022/01/23 05:32:32;;;;;;;1.50;1.30;;;4.30;98.00;;;;;;5129216;28;20490;-68
2022/01/23 05:34:59;;;;;;;1.10;1.10;;;4.20;98.00;;;;;;5128928;28;20952;-68
2022/01/23 05:37:28;;;;;;;1.47;1.30;;;4.30;98.00;;;;;;5129356;28;20459;-68
2022/01/23 05:39:55;;;;;;;1.43;1.33;;;4.20;98.00;;;;;;5110957;28;20540;-69
2022/01/23 05:42:23;;;;;;;1.10;1.10;;;4.20;98.00;;;;;;5129034;28;20511;-68
2022/01/23 05:44:50;;;;;;;1.10;1.00;;;4.20;98.00;;;;;;5128972;28;20499;-68
2022/01/23 05:47:17;;;;;;;1.10;1.00;;;4.20;98.00;;;;;;5128968;28;20515;-68
2022/01/23 05:49:44;;;;;;;1.10;1.00;;;4.10;98.00;;;;;;5128612;28;20486;-68
2022/01/23 05:52:11;;;;;;;1.43;1.33;;;4.20;98.00;;;;;;5128965;28;20446;-69
2022/01/23 05:54:39;;;;;;;1.80;1.70;;;4.20;98.00;;;;;;5128712;28;20554;-69
2022/01/23 05:57:06;;;;;;;1.50;1.47;;;4.20;98.00;;;;;;5128772;28;20493;-69
2022/01/23 05:59:33;;;;;;;1.10;1.00;;;4.20;98.00;;;;;;5128756;28;20869;-69
2022/01/23 06:02:00;;;;;;;1.87;1.50;;;4.00;98.00;;;;;;5115499;28;20491;-70
2022/01/23 06:04:28;;;;;;;5.10;1.50;;;4.10;98.00;;;;;;5114882;28;20483;-69
2022/01/23 06:06:58;;;;;;;1.20;1.10;;;4.10;98.00;;;;;;5114824;28;21166;-68
2022/01/23 06:09:25;;;;;;;1.77;1.20;;;4.10;98.00;;;;;;5114784;28;20562;-69
2022/01/23 06:11:54;;;;;;;1.10;1.00;;;4.20;98.00;;;;;;5114866;28;20486;-69
2022/01/23 06:14:21;;;;;;;1.23;1.10;;;4.20;98.00;;;;;;5114829;28;20538;-69
2022/01/23 06:16:48;;;;;;;1.60;1.50;;;4.20;98.00;;;;;;5115035;28;20488;-69
2022/01/23 06:19:15;;;;;;;1.23;1.23;;;4.20;98.00;;;;;;5114614;28;20494;-70
2022/01/23 06:21:43;;;;;;;1.30;1.20;;;4.20;98.00;;;;;;5115029;28;20481;-68
2022/01/23 06:24:14;;;;;;;1.60;1.60;;;4.10;98.00;;;;;;5114861;28;20667;-68
2022/01/23 06:26:44;;;;;;;2.50;1.90;;;4.10;98.00;;;;;;5114829;28;20472;-68
2022/01/23 06:29:13;;;;;;;1.10;1.00;;;4.10;98.00;;;;;;5114491;28;21157;-68
2022/01/23 06:31:40;;;;;;;1.37;1.20;;;4.10;98.00;;;;;;5114876;28;20512;-70
2022/01/23 06:34:08;;;;;;;2.03;1.93;;;4.10;98.00;;;;;;5114584;28;20509;-68
2022/01/23 06:36:35;;;;;;;1.10;1.10;;;4.10;98.00;;;;;;5114359;28;20486;-68
2022/01/23 06:39:03;;;;;;;1.10;1.10;;;4.10;98.00;;;;;;5114584;28;21068;-68
2022/01/23 06:41:30;;;;;;;1.40;1.20;;;4.10;98.00;;;;;;5114261;28;20483;-69
2022/01/23 06:43:58;;;;;;;1.10;1.00;;;4.10;98.00;;;;;;5114115;28;20457;-68
2022/01/23 06:46:26;;;;;;;1.47;1.43;;;4.10;98.00;;;;;;5096302;28;20455;-69
2022/01/23 06:48:53;;;;;;;1.20;1.17;;;4.20;98.00;;;;;;5113656;28;20497;-69
2022/01/23 06:51:20;;;;;;;1.10;1.10;;;4.20;98.00;;;;;;5114072;28;20490;-69
2022/01/23 06:53:47;;;;;;;1.30;1.20;;;4.10;98.00;;;;;;5114124;28;20490;-69
2022/01/23 06:56:14;;;;;;;1.20;1.10;;;4.10;98.00;;;;;;5113915;28;20445;-68
2022/01/23 06:58:42;;;;;;;1.30;1.27;;;4.00;98.00;;;;;;5113957;28;20491;-69
2022/01/23 07:01:09;;;;;;;1.60;1.17;;;4.00;98.00;;;;;;5113925;28;20483;-68
2022/01/23 07:03:38;;;;;;;1.70;1.33;;;3.90;98.00;;;;;;5095888;28;20459;-68
2022/01/23 07:06:05;;;;;;;1.37;1.20;;;3.90;98.00;;;;;;5095726;28;20482;-70
2022/01/23 07:08:33;;;;;;;1.73;1.60;;;3.90;98.00;;;;;;5113699;28;20840;-68
2022/01/23 07:11:00;;;;;;;1.10;1.10;;;4.00;98.00;;;;;;5113535;28;20576;-69
2022/01/23 07:13:27;;;;;;;1.60;1.30;;;4.00;98.00;;;;;;5112685;28;20494;-68
2022/01/23 07:15:54;;;;;;;1.10;1.00;;;4.10;98.00;;;;;;5113628;28;20871;-69
2022/01/23 07:18:22;;;;;;;1.10;1.07;;;4.20;98.00;;;;;;5113633;28;20517;-70
2022/01/23 07:20:51;;;;;;;1.40;1.33;;;4.20;98.00;;;;;;5113573;28;20452;-69
2022/01/23 07:23:21;;;;;;;1.20;1.10;;;4.20;98.00;;;;;;5113357;28;20447;-69
2022/01/23 07:25:49;;;;;;;1.40;1.20;;;4.20;98.00;;;;;;5113283;28;20487;-69
2022/01/23 07:28:19;;;;;;;3.90;2.33;;;4.20;98.00;;;;;;5113554;28;20455;-68
2022/01/23 07:30:52;;;;;;;1.40;1.20;;;4.10;98.00;;;;;;5113258;28;20484;-68
2022/01/23 07:33:19;;;;;;;1.47;1.33;;;4.10;98.00;;;;;;5113495;28;20455;-69
2022/01/23 07:35:47;;;;;;;1.10;1.00;;;4.20;98.00;;;;;;5113210;28;20929;-69
2022/01/23 07:38:17;;;;;;;4.13;2.70;;;4.20;98.00;;;;;;5113383;28;20483;-69
2022/01/23 07:40:45;;;;;;;1.57;1.53;;;4.20;98.00;;;;;;5113121;28;20503;-69
2022/01/23 07:43:12;;;;;;;2.60;1.87;;;4.30;98.00;;;;;;5113186;28;20459;-70
2022/01/23 07:45:39;;;;;;;4.60;2.37;;;4.30;98.00;;;;;;5113075;28;20494;-70
2022/01/23 07:48:07;;;;;;;1.30;1.20;;;4.30;98.00;;;;;;5113230;28;21119;-70
2022/01/23 07:50:35;;;;;;;1.60;1.43;;;4.20;98.00;;;;;;5112846;28;20488;-69
2022/01/23 07:53:02;;;;;;;1.33;1.30;;;4.20;98.00;;;;;;5112375;28;20498;-70
2022/01/23 07:55:31;;;;;;;2.40;1.77;;;4.20;98.00;;;;;;5112109;28;20484;-67
2022/01/23 07:58:02;;;;;;;1.57;1.47;;;4.30;98.00;;;;;;5112236;28;20487;-69
2022/01/23 08:00:30;;;;;;;2.10;1.50;;;4.30;98.00;;;;;;5113090;28;20472;-69
2022/01/23 08:02:57;;;;;;;1.30;1.10;;;4.30;98.00;;;;;;5112788;28;20492;-68
2022/01/23 08:05:24;;;;;;;1.10;1.10;;;4.30;98.00;;;;;;5112968;28;20961;-69
2022/01/23 08:07:51;;;;;;;1.60;1.53;;;4.30;98.00;;;;;;5112561;28;20539;-69
2022/01/23 08:10:18;;;;;;;1.50;1.50;;;4.40;98.00;;;;;;5112482;28;20513;-69
2022/01/23 08:12:47;;;;;;;2.13;1.30;;;4.60;98.00;;;;;;5112739;28;20459;-68
2022/01/23 08:15:14;;;;;;;1.60;1.47;;;4.60;98.00;;;;;;5112553;28;20543;-70
2022/01/23 08:17:45;;;;;;;2.07;1.40;;;4.60;98.00;;;;;;5112379;28;20512;-68
2022/01/23 08:20:12;;;;;;;1.30;1.20;;;4.50;98.00;;;;;;5112381;28;20533;-68
2022/01/23 08:22:39;;;;;;;1.43;1.33;;;4.40;98.00;;;;;;5112169;28;21004;-68
2022/01/23 08:25:07;;;;;;;2.50;2.20;;;4.50;98.00;;;;;;5111799;28;20542;-68
2022/01/23 08:27:35;;;;;;;3.67;2.03;;;4.60;98.00;;;;;;5094230;28;20455;-68
2022/01/23 08:30:05;;;;;;;1.30;1.20;;;4.70;98.00;;;;;;5112158;28;20487;-68
2022/01/23 08:32:32;;;;;;;1.20;1.10;;;4.70;98.00;;;;;;5112373;28;20467;-67
2022/01/23 08:34:59;;;;;;;1.10;1.00;;;4.70;98.00;;;;;;5127636;27;20486;-68
2022/01/23 08:37:26;;;;;;;1.33;1.30;;;4.70;98.00;;;;;;5129884;27;20523;-68
2022/01/23 08:39:55;;;;;;;2.07;1.80;;;4.80;98.00;;;;;;5130029;27;20510;-68
2022/01/23 08:42:23;;;;;;;1.23;1.23;;;4.70;98.00;;;;;;5129872;27;20549;-68
2022/01/23 08:44:50;;;;;;;1.10;1.10;;;4.70;98.00;;;;;;5130052;27;20490;-68
2022/01/23 08:47:23;;;;;;;1.40;1.30;;;4.70;98.00;;;;;;5129883;28;20446;-68
2022/01/23 08:49:51;;;;;;;1.70;1.40;;;4.80;98.00;;;;;;5108974;28;20989;-69
2022/01/23 08:52:20;;;;;;;2.00;1.90;;;4.90;98.00;;;;;;5130012;28;20450;-68
2022/01/23 08:54:50;;;;;;;2.67;2.07;;;4.90;98.00;;;;;;5129410;28;20449;-68
2022/01/23 08:57:17;;;;;;;1.10;1.00;;;4.90;98.00;;;;;;5129759;28;20778;-69
2022/01/23 08:59:45;;;;;;;1.93;1.63;;;5.10;98.00;;;;;;5122170;28;20502;-68
2022/01/23 09:02:12;;;;;;;1.50;1.40;;;5.10;98.00;;;;;;5129816;28;20554;-68
2022/01/23 09:04:40;;;;;;;1.63;1.53;;;5.10;98.00;;;;;;5129873;28;20491;-67
2022/01/23 09:07:07;;;;;;;1.87;1.77;;;5.10;98.00;;;;;;5129201;28;20492;-68
2022/01/23 09:09:38;;;;;;;1.10;1.10;;;5.40;98.00;;;;;;5129736;28;20486;-67
2022/01/23 09:12:09;;;;;;;2.50;2.30;;;5.40;98.00;;;;;;5129757;28;20773;-68
2022/01/23 09:14:36;;;;;;;1.73;1.67;;;5.40;98.00;;;;;;5129613;28;20466;-68
2022/01/23 09:17:05;;;;;;;2.03;1.70;;;5.40;98.00;;;;;;5129526;28;20489;-70
2022/01/23 09:19:32;;;;;;;1.60;1.47;;;5.50;98.00;;;;;;5129749;28;20459;-69
2022/01/23 09:22:01;;;;;;;1.60;1.50;;;5.60;98.00;;;;;;5129873;28;20489;-68
2022/01/23 09:24:30;;;;;;;1.70;1.30;;;5.60;98.00;;;;;;5121186;28;20458;-68
2022/01/23 09:27:03;;;;;;;2.60;1.37;;;5.60;98.00;;;;;;5129569;28;20811;-70
2022/01/23 09:29:35;;;;;;;1.37;1.33;;;5.70;98.00;;;;;;5129419;28;20454;-69
2022/01/23 09:32:03;;;;;;;2.57;2.37;;;5.70;98.00;;;;;;5129200;28;20487;-71
2022/01/23 09:34:32;;;;;;;1.47;1.20;;;5.60;98.00;;;;;;5129310;28;21035;-67
2022/01/23 09:37:03;;;;;;;1.17;1.10;;;5.70;98.00;;;;;;5132575;27;20540;-69
2022/01/23 09:39:32;;;;;;;1.40;1.37;;;5.60;98.00;;;;;;5133502;27;20520;-67
2022/01/23 09:42:04;;;;;;;1.90;1.80;;;5.60;98.00;;;;;;5133583;27;20860;-68
2022/01/23 09:44:36;;;;;;;1.20;1.20;;;5.60;98.00;;;;;;5133078;27;21335;-68
2022/01/23 09:47:03;;;;;;;3.87;1.87;;;5.70;98.00;;;;;;5133186;27;21134;-70
2022/01/23 09:49:32;;;;;;;5.20;2.83;;;5.50;98.00;;;;;;5130756;27;20532;-66
2022/01/23 09:52:07;;;;;;;1.37;1.33;;;5.60;98.00;;;;;;5133246;27;20494;-69
2022/01/23 09:54:34;;;;;;;1.73;1.63;;;5.80;98.00;;;;;;5113768;27;20494;-69
2022/01/23 09:57:02;;;;;;;1.20;1.10;;;5.90;98.00;;;;;;5133133;27;20508;-68
2022/01/23 09:59:30;;;;;;;1.83;1.60;;;6.10;98.00;;;;;;5132755;27;20452;-68
2022/01/23 10:01:58;;;;;;;1.20;1.07;;;6.20;98.00;;;;;;5132802;27;20453;-69
2022/01/23 10:04:26;;;;;;;1.20;1.10;;;6.20;98.00;;;;;;5115851;27;21013;-68
2022/01/23 10:06:54;;;;;;;1.43;1.33;;;6.10;98.00;;;;;;5132368;27;20996;-69
2022/01/23 10:09:24;;;;;;;1.77;1.63;;;6.20;98.00;;;;;;5114674;27;20493;-68
2022/01/23 10:11:51;;;;;;;1.70;1.60;;;6.30;98.00;;;;;;5116640;27;20484;-68
2022/01/23 10:14:20;;;;;;;1.97;1.60;;;6.30;98.00;;;;;;5132639;27;20862;-69
2022/01/23 10:16:48;;;;;;;1.50;1.47;;;6.40;98.00;;;;;;5132660;27;20897;-67
2022/01/23 10:19:16;;;;;;;1.60;1.50;;;6.20;98.00;;;;;;5132553;27;20481;-67
2022/01/23 10:21:44;;;;;;;2.50;1.30;;;6.00;98.00;;;;;;5132512;27;20554;-66
2022/01/23 10:24:14;;;;;;;1.87;1.77;;;6.00;98.00;;;;;;5132273;27;20460;-68
2022/01/23 10:26:47;;;;;;;1.83;1.43;;;6.10;98.00;;;;;;5132159;27;20884;-68
2022/01/23 10:29:16;;;;;;;3.40;2.20;;;6.10;98.00;;;;;;5132472;27;20551;-68
2022/01/23 10:32:03;;;;;;;1.90;1.80;;;6.20;98.00;;;;;;5132205;27;20540;-69
2022/01/23 10:34:50;;;;;;;1.30;1.30;;;6.20;98.00;;;;;;5132131;27;20537;-68
2022/01/23 10:37:32;;;;;;;1.20;1.20;;;6.10;98.00;;;;;;5096746;27;20459;-68
2022/01/23 10:40:01;;;;;;;1.50;1.37;;;5.90;98.00;;;;;;5118777;27;20460;-67
2022/01/23 10:42:52;;;;;;;1.90;1.60;;;6.00;98.00;;;;;;5114494;28;20472;-67
2022/01/23 10:48:27;;;;;;;1.23;1.17;;;6.10;98.00;;;;;;5114501;28;21084;-66
2022/01/23 10:51:15;;;;;;;1.20;1.10;;;6.00;98.00;;;;;;5095871;28;20488;-68
2022/01/23 10:53:58;;;;;;;1.10;1.00;;;6.00;98.00;;;;;;5093780;28;20958;-67
2022/01/23 10:56:26;;;;;;;1.20;1.20;;;6.10;98.00;;;;;;5093711;28;20831;-67
2022/01/23 10:59:02;;;;;;;3.13;1.67;;;6.20;98.00;;;;;;5093479;28;20541;-67
2022/01/23 11:01:30;;;;;;;1.20;1.13;;;6.10;98.00;;;;;;5093680;28;20507;-67
2022/01/23 11:04:10;;;;;;;1.10;1.00;;;6.30;98.00;;;;;;5093463;28;20823;-67
2022/01/23 11:06:55;;;;;;;2.73;1.90;;;6.40;98.00;;;;;;5093254;28;20462;-67
2022/01/23 11:09:30;;;;;;;1.20;1.10;;;6.30;98.00;;;;;;5092973;28;20495;-68
2022/01/23 11:12:03;;;;;;;1.40;1.30;;;6.40;98.00;;;;;;5075276;28;20903;-67
2022/01/23 11:17:25;;;;;;;1.37;1.20;;;6.40;98.00;;;;;;5093393;28;20440;-68
2022/01/23 11:19:58;;;;;;;1.20;1.10;;;6.50;98.00;;;;;;5093184;28;20464;-68
2022/01/23 11:22:28;;;;;;;2.90;2.47;;;6.70;98.00;;;;;;5094165;28;20540;-67
2022/01/23 11:25:01;;;;;;;1.80;1.57;;;6.60;98.00;;;;;;5093771;28;20483;-67
2022/01/23 11:27:33;;;;;;;1.13;1.00;;;6.60;98.00;;;;;;5093903;28;20453;-67
2022/01/23 11:30:06;;;;;;;1.20;1.10;;;6.70;98.00;;;;;;5092946;28;20456;-67
2022/01/23 11:32:37;;;;;;;1.87;1.43;;;6.90;98.00;;;;;;5075271;28;21097;-67
2022/01/23 11:35:09;;;;;;;1.80;1.63;;;7.00;98.00;;;;;;5092755;28;20807;-67
2022/01/23 11:37:39;;;;;;;1.30;1.20;;;7.10;98.00;;;;;;5092789;28;20463;-68
2022/01/23 11:40:22;;;;;;;1.40;1.30;;;7.00;98.00;;;;;;5092714;28;20460;-67
2022/01/23 11:53:44;;;;;;;1.73;1.10;;;7.00;98.00;;;;;;5092610;28;20887;-68
2022/01/23 11:54:15;;;;;;;1.40;1.30;;;7.20;98.00;;;;;;5092383;28;20463;-68
2022/01/23 11:56:46;;;;;;;1.30;1.27;;;7.30;98.00;;;;;;5092871;28;20550;-67
2022/01/23 11:59:25;;;;;;;1.30;1.10;;;7.30;98.00;;;;;;5092010;28;20509;-67
2022/01/23 12:02:34;;;;;;;1.30;1.23;;;7.30;98.00;;;;;;5092712;28;20820;-67
2022/01/23 12:05:32;;;;;;;1.77;1.67;;;7.40;98.00;;;;;;5092670;28;20473;-67
2022/01/23 12:08:26;;;;;;;1.20;1.10;;;7.60;98.00;;;;;;5092427;28;20468;-68
2022/01/23 12:17:45;;;;;;;1.47;1.20;;;7.70;98.00;;;;;;5092346;28;21016;-68
2022/01/23 12:20:13;;;;;;;3.33;1.23;;;7.60;98.00;;;;;;5092148;28;20463;-67
2022/01/23 12:22:57;;;;;;;1.20;1.00;;;7.70;98.00;;;;;;5092081;28;20455;-67
2022/01/23 12:25:27;;;;;;;4.13;1.97;;;7.70;98.00;;;;;;5092091;28;20535;-67
2022/01/23 12:28:16;;;;;;;4.73;2.10;;;7.70;98.00;;;;;;5091924;28;20857;-67
2022/01/23 12:30:45;;;;;;;1.30;1.17;;;7.70;98.00;;;;;;5091733;28;20633;-67
2022/01/23 12:33:20;;;;;;;2.57;2.37;;;7.60;98.00;;;;;;5091399;28;20495;-67
2022/01/23 12:35:50;;;;;;;1.83;1.30;;;7.50;98.00;;;;;;5073719;28;20465;-67
2022/01/23 12:38:18;;;;;;;1.20;1.10;;;7.50;98.00;;;;;;5091766;28;20495;-67
2022/01/23 12:40:47;;;;;;;21.83;2.10;;;7.50;98.00;;;;;;5091808;28;20491;-67
2022/01/23 12:43:17;;;;;;;1.20;1.07;;;7.40;98.00;;;;;;5091747;28;20469;-67
2022/01/23 12:45:47;;;;;;;1.20;1.17;;;7.40;98.00;;;;;;5091787;28;20460;-67
2022/01/23 12:48:48;;;;;;;1.33;1.27;;;7.10;98.00;;;;;;5091619;28;20457;-67
2022/01/23 12:51:39;;;;;;;1.33;1.30;;;6.90;98.00;;;;;;5091597;28;20544;-68
2022/01/23 12:54:16;;;;;;;1.50;1.47;;;6.70;98.00;;;;;;5091612;28;21039;-67
2022/01/23 12:56:44;;;;;;;1.33;1.27;;;6.80;98.00;;;;;;5091894;28;20484;-67
2022/01/23 12:59:19;;;;;;;1.80;1.40;;;6.60;98.00;;;;;;5091499;28;20925;-67
2022/01/23 13:01:47;;;;;;;1.20;1.00;;;6.50;98.00;;;;;;5091519;28;20979;-67
2022/01/23 13:04:17;;;;;;;1.50;1.33;;;6.50;98.00;;;;;;5091693;28;20560;-67
2022/01/23 13:06:50;;;;;;;1.20;1.00;;;6.60;98.00;;;;;;5091383;28;20459;-67
2022/01/23 13:09:24;;;;;;;1.93;1.90;;;6.70;98.00;;;;;;5090829;28;20550;-67
2022/01/23 13:12:03;;;;;;;1.20;1.00;;;6.70;98.00;;;;;;5093576;28;20486;-67
2022/01/23 13:14:38;;;;;;;1.30;1.00;;;6.60;98.00;;;;;;5094945;28;20530;-67
2022/01/23 13:26:23;;;;;;;1.33;1.20;;;6.70;98.00;;;;;;5094470;28;20453;-71
2022/01/23 13:31:09;;;;;;;1.20;1.10;;;6.50;98.00;;;;;;5095283;28;20489;-69
2022/01/23 13:33:39;;;;;;;1.20;1.00;;;6.50;98.00;;;;;;5094365;28;20484;-68
2022/01/23 13:36:10;;;;;;;1.83;1.50;;;6.50;98.00;;;;;;5095137;28;20486;-68
2022/01/23 13:38:38;;;;;;;1.20;0.90;;;6.60;98.00;;;;;;5094973;28;21019;-68
2022/01/23 13:41:21;;;;;;;1.20;1.00;;;6.60;98.00;;;;;;5094604;28;20469;-68
2022/01/23 13:58:09;;;;;;;1.30;1.23;;;6.90;98.00;;;;;;5094898;28;20444;-68
2022/01/23 14:00:36;;;;;;;1.60;1.10;;;7.00;98.00;;;;;;5094807;28;20449;-68
2022/01/23 14:03:05;;;;;;;1.43;1.40;;;7.00;98.00;;;;;;5094696;28;20490;-68
2022/01/23 14:05:34;;;;;;;1.33;1.27;;;7.00;98.00;;;;;;5094735;28;20520;-68
2022/01/23 14:08:05;;;;;;;1.20;1.00;;;7.10;98.00;;;;;;5094625;28;20462;-68
2022/01/23 14:10:34;;;;;;;2.37;1.23;;;7.00;98.00;;;;;;5094544;28;20483;-68
2022/01/23 14:13:10;;;;;;;1.20;1.00;;;7.10;98.00;;;;;;5094391;28;20486;-68
2022/01/23 14:15:44;;;;;;;1.20;1.10;;;7.00;98.00;;;;;;5094357;28;20464;-68
2022/01/23 14:18:13;;;;;;;1.60;1.53;;;6.90;98.00;;;;;;5094396;28;20846;-68
2022/01/23 14:20:41;;;;;;;1.20;1.10;;;7.00;98.00;;;;;;5094411;28;20458;-68
2022/01/23 14:23:16;;;;;;;1.20;1.00;;;7.00;98.00;;;;;;5093845;28;20459;-68
2022/01/23 14:25:48;;;;;;;1.20;1.00;;;6.90;98.00;;;;;;5094066;28;20520;-68
2022/01/23 14:28:20;;;;;;;1.20;1.00;;;6.90;98.00;;;;;;5094160;28;20481;-68
2022/01/23 14:30:50;;;;;;;1.20;0.90;;;6.90;98.00;;;;;;5094145;28;20520;-68
2022/01/23 14:33:29;;;;;;;1.20;1.00;;;6.80;98.00;;;;;;5094129;28;20526;-68
2022/01/23 14:35:57;;;;;;;1.30;1.20;;;6.80;98.00;;;;;;5094055;28;20454;-68
2022/01/23 14:38:27;;;;;;;1.20;1.03;;;6.80;98.00;;;;;;5094104;28;20451;-68
2022/01/23 14:40:57;;;;;;;1.20;1.00;;;6.70;98.00;;;;;;5094071;28;20497;-68
2022/01/23 14:43:31;;;;;;;1.20;1.13;;;6.60;98.00;;;;;;5094070;28;20945;-68
2022/01/23 14:46:00;;;;;;;1.50;1.10;;;6.70;98.00;;;;;;5093921;28;20455;-68
2022/01/23 14:48:27;;;;;;;1.20;0.90;;;6.70;98.00;;;;;;5094000;28;20928;-68
2022/01/23 14:50:56;;;;;;;1.20;1.00;;;6.60;98.00;;;;;;5093846;28;20894;-68
2022/01/23 14:53:25;;;;;;;1.20;1.00;;;6.60;98.00;;;;;;5094027;28;20509;-68
2022/01/23 14:55:54;;;;;;;1.20;1.00;;;6.60;98.00;;;;;;5093887;28;20872;-68
2022/01/23 14:58:22;;;;;;;1.20;1.00;;;6.60;98.00;;;;;;5093927;28;20465;-68
2022/01/23 15:00:51;;;;;;;1.20;1.00;;;6.60;98.00;;;;;;5093948;28;20964;-68
2022/01/23 15:03:18;;;;;;;1.30;1.20;;;6.60;98.00;;;;;;5093847;28;20549;-68
2022/01/23 15:05:45;;;;;;;1.20;1.00;;;6.60;98.00;;;;;;5093489;28;20489;-68
2022/01/23 15:08:13;;;;;;;1.20;1.00;;;6.50;98.00;;;;;;5093783;28;20495;-68
2022/01/23 15:10:45;;;;;;;1.20;1.00;;;6.40;98.00;;;;;;5093331;28;20495;-68
2022/01/23 15:13:13;;;;;;;1.20;1.00;;;6.50;98.00;;;;;;5093375;28;20483;-68
2022/01/23 15:15:41;;;;;;;1.20;1.00;;;6.40;98.00;;;;;;5093524;28;20479;-68
2022/01/23 15:18:10;;;;;;;1.30;1.03;;;6.40;98.00;;;;;;5093329;28;20486;-68
2022/01/23 15:20:37;;;;;;;2.60;1.20;;;6.40;98.00;;;;;;5093039;28;20523;-68
2022/01/23 15:23:05;;;;;;;1.20;1.00;;;6.30;98.00;;;;;;5093133;28;20476;-68
2022/01/23 15:25:33;;;;;;;2.20;1.10;;;6.20;98.00;;;;;;5093072;28;20463;-68
2022/01/23 15:28:01;;;;;;;1.20;1.00;;;6.10;98.00;;;;;;5092972;28;21009;-68
2022/01/23 15:30:29;;;;;;;1.40;1.13;;;6.00;98.00;;;;;;5092725;28;20805;-68
2022/01/23 15:32:57;;;;;;;1.20;1.00;;;6.00;98.00;;;;;;5092530;28;20485;-68
2022/01/23 15:35:26;;;;;;;1.50;1.10;;;6.00;98.00;;;;;;5092628;28;20479;-68
2022/01/23 15:37:59;;;;;;;1.20;1.00;;;5.90;98.00;;;;;;5092859;28;20905;-68
2022/01/23 15:40:26;;;;;;;1.20;1.00;;;5.90;98.00;;;;;;5092709;28;20449;-68
2022/01/23 15:42:56;;;;;;;1.20;0.90;;;5.90;98.00;;;;;;5092729;28;20458;-68
2022/01/23 15:45:26;;;;;;;1.20;1.00;;;5.90;98.00;;;;;;5092585;28;20886;-68
2022/01/23 15:47:53;;;;;;;1.30;1.10;;;5.90;98.00;;;;;;5092626;28;20542;-68
2022/01/23 15:50:21;;;;;;;1.20;1.00;;;5.80;98.00;;;;;;5092386;28;20485;-68
2022/01/23 15:52:49;;;;;;;1.40;1.30;;;5.80;98.00;;;;;;5092514;28;20481;-68
2022/01/23 15:55:19;;;;;;;1.30;1.20;;;5.80;98.00;;;;;;5092762;28;20490;-68
2022/01/23 15:57:48;;;;;;;1.30;1.20;;;5.90;98.00;;;;;;5092648;28;20461;-68
2022/01/23 16:00:17;;;;;;;1.40;1.30;;;5.90;98.00;;;;;;5092459;28;20461;-68
2022/01/23 16:02:46;;;;;;;1.20;1.00;;;5.90;98.00;;;;;;5092530;28;20837;-68